Time;durP1;ratioP1;P1;durP2;ratioP2;P2;SDS_P1;SDS_P2;PMS_P1;PMS_P2;Temp;Humidity;BMP_temperature;BMP_pressure;BME280_temperature;BME280_humidity;BME280_pressure;Samples;Min_cycle;Max_cycle;Signal;HPM_P1;HPM_P2
2022/04/12 00:00:42;;;;;;;;;6.60;3.80;;;;;16.19;51.56;99981.81;5057158;28;45453;-56
2022/04/12 00:03:07;;;;;;;;;4.25;4.25;;;;;16.35;51.32;100013.19;5057365;28;45359;-53
2022/04/12 00:05:34;;;;;;;;;4.50;4.00;;;;;16.38;51.33;100015.41;5057917;28;45362;-55
2022/04/12 00:07:59;;;;;;;;;5.00;5.00;;;;;16.36;51.82;100016.78;5072609;28;46434;-57
2022/04/12 00:10:25;;;;;;;;;4.00;4.00;;;;;16.32;51.44;100004.59;5057714;28;45705;-52
2022/04/12 00:12:50;;;;;;;;;4.00;4.00;;;;;16.30;51.56;99998.47;5057263;28;45366;-53
2022/04/12 00:15:16;;;;;;;;;4.00;4.00;;;;;16.30;51.41;100018.69;5057634;28;45812;-58
2022/04/12 00:20:28;;;;;;;;;5.00;4.00;;;;;16.25;52.01;100021.41;5057709;28;45418;-55
2022/04/12 00:22:55;;;;;;;;;4.00;2.80;;;;;16.21;51.77;100011.97;5073005;28;45378;-56
2022/04/12 00:25:22;;;;;;;;;5.80;4.60;;;;;16.20;51.91;100015.84;5057690;28;45434;-52
2022/04/12 00:27:48;;;;;;;;;4.80;3.00;;;;;16.08;52.05;100008.59;5056947;28;46156;-56
2022/04/12 00:30:14;;;;;;;;;6.20;3.80;;;;;16.18;52.12;100026.38;5088922;27;45429;-55
2022/04/12 00:32:39;;;;;;;;;3.00;2.50;;;;;16.06;52.01;100004.44;5038943;28;45351;-55
2022/04/12 00:35:05;;;;;;;;;3.25;3.25;;;;;16.09;51.56;100018.56;5057458;28;45238;-55
2022/04/12 00:37:31;;;;;;;;;6.00;4.50;;;;;16.05;52.63;100019.34;5072596;28;45431;-55
2022/04/12 00:39:56;;;;;;;;;3.75;3.75;;;;;15.99;52.71;100007.41;5056901;28;45353;-58
2022/04/12 00:42:22;;;;;;;;;3.75;3.75;;;;;16.02;52.81;100017.13;5072585;28;45332;-54
2022/04/12 00:44:47;;;;;;;;;5.00;4.00;;;;;15.99;52.91;100010.19;5055698;28;45584;-55
2022/04/12 00:47:13;;;;;;;;;4.00;4.00;;;;;15.97;52.97;99996.59;5056762;28;45475;-55
2022/04/12 00:49:39;;;;;;;;;4.00;4.00;;;;;15.96;52.78;99992.19;5056873;28;45378;-54
2022/04/12 00:52:05;;;;;;;;;4.75;4.75;;;;;15.94;53.03;99994.38;5057409;28;45343;-57
2022/04/12 00:54:34;;;;;;;;;7.20;5.80;;;;;15.91;53.42;99989.34;5057147;28;45398;-53
2022/04/12 00:57:00;;;;;;;;;5.00;3.80;;;;;15.78;53.23;99973.19;5038619;28;45948;-54
2022/04/12 00:59:26;;;;;;;;;4.00;4.00;;;;;15.86;52.86;99992.91;5055099;28;45417;-56
2022/04/12 01:01:51;;;;;;;;;5.00;5.00;;;;;15.84;53.56;99992.34;5022040;28;45364;-53
2022/04/12 01:04:17;;;;;;;;;6.00;5.00;;;;;15.81;53.56;100003.94;5056571;28;45318;-54
2022/04/12 01:06:42;;;;;;;;;4.00;3.00;;;;;15.78;53.22;100001.72;5056138;28;45365;-55
2022/04/12 01:09:09;;;;;;;;;4.00;3.75;;;;;15.66;53.57;99971.47;5038123;28;45459;-51
2022/04/12 01:11:35;;;;;;;;;4.80;4.00;;;;;15.75;53.58;99985.66;5071857;28;45311;-52
2022/04/12 01:14:01;;;;;;;;;3.80;3.80;;;;;15.50;53.10;99945.63;5038389;28;45362;-56
2022/04/12 01:16:27;;;;;;;;;3.50;3.00;;;;;15.66;53.92;99970.63;5071988;28;46390;-51
2022/04/12 01:18:52;;;;;;;;;5.25;4.75;;;;;15.64;53.80;99973.66;5055864;28;45383;-54
2022/04/12 01:21:18;;;;;;;;;3.25;3.25;;;;;15.58;53.77;99969.19;5050823;28;45390;-52
2022/04/12 01:24:02;;;;;;;;;3.00;2.50;;;;;15.69;53.69;99995.00;5007308;28;45714;-54
2022/04/12 01:26:27;;;;;;;;;5.20;5.20;;;;;15.68;53.60;99996.09;5056108;28;45799;-53
2022/04/12 01:28:53;;;;;;;;;3.75;3.75;;;;;15.65;53.44;99996.63;5056157;28;45311;-54
2022/04/12 01:31:18;;;;;;;;;4.00;4.00;;;;;15.65;53.79;99988.31;5038034;28;45345;-56
2022/04/12 01:33:44;;;;;;;;;3.50;3.50;;;;;15.60;53.99;99986.38;5056111;28;45320;-56
2022/04/12 01:36:09;;;;;;;;;5.50;4.00;;;;;15.39;53.68;99946.63;5037772;28;47036;-53
2022/04/12 01:38:35;;;;;;;;;5.25;5.00;;;;;15.62;54.19;99975.03;5056036;28;45373;-53
2022/04/12 01:41:02;;;;;;;;;4.00;4.00;;;;;15.58;54.34;99983.84;5055416;28;45374;-55
2022/04/12 01:43:28;;;;;;;;;4.20;4.00;;;;;15.50;54.04;99978.81;5056069;28;45611;-54
2022/04/12 01:45:53;;;;;;;;;4.75;3.00;;;;;15.54;54.01;99996.53;5054189;28;45497;-52
2022/04/12 01:48:19;;;;;;;;;5.00;4.50;;;;;15.53;54.47;100005.94;5055420;28;45441;-56
2022/04/12 01:50:44;;;;;;;;;8.00;5.00;;;;;15.52;54.07;100003.44;5056143;28;45510;-53
2022/04/12 01:53:10;;;;;;;;;6.75;5.50;;;;;14.77;54.07;99892.47;5055857;28;45484;-58
2022/04/12 01:55:35;;;;;;;;;4.75;4.75;;;;;15.50;54.41;100012.00;5055643;28;46661;-55
2022/04/12 01:58:01;;;;;;;;;5.00;5.00;;;;;15.52;54.34;100004.25;5055264;28;45295;-51
2022/04/12 02:00:26;;;;;;;;;4.75;3.75;;;;;15.51;54.28;99999.84;5055352;28;45399;-56
2022/04/12 02:02:52;;;;;;;;;3.00;3.00;;;;;15.49;54.33;100004.81;5055539;28;45350;-51
2022/04/12 02:05:17;;;;;;;;;3.75;3.00;;;;;15.48;54.12;100003.13;5055513;28;46092;-56
2022/04/12 02:07:43;;;;;;;;;4.00;4.00;;;;;15.48;53.95;100000.34;5037313;28;45420;-57
2022/04/12 02:10:09;;;;;;;;;5.00;4.00;;;;;15.47;53.94;99995.09;5055243;28;45373;-56
2022/04/12 02:12:34;;;;;;;;;5.40;3.80;;;;;15.44;54.82;99988.97;5055623;28;45735;-55
2022/04/12 02:15:00;;;;;;;;;3.25;3.25;;;;;15.38;54.37;99975.38;5054954;28;46409;-52
2022/04/12 02:17:26;;;;;;;;;6.50;4.25;;;;;15.46;54.48;99994.25;5054044;28;46324;-59
2022/04/12 02:19:51;;;;;;;;;4.00;4.00;;;;;15.40;54.12;99987.00;5070823;28;45413;-53
2022/04/12 02:22:17;;;;;;;;;4.50;4.50;;;;;15.40;54.35;99979.56;5055363;28;45268;-53
2022/04/12 02:24:42;;;;;;;;;3.75;3.75;;;;;15.29;54.06;99961.22;5054721;28;45554;-55
2022/04/12 02:27:08;;;;;;;;;6.00;4.00;;;;;15.29;54.56;99964.81;5055127;28;45654;-57
2022/04/12 02:29:33;;;;;;;;;4.50;2.50;;;;;15.38;53.95;99978.16;5054021;28;45482;-56
2022/04/12 02:31:59;;;;;;;;;5.75;4.75;;;;;15.19;53.90;99939.84;5055586;28;45327;-54
2022/04/12 02:34:24;;;;;;;;;3.00;3.00;;;;;15.35;54.36;99975.91;5054535;28;45730;-54
2022/04/12 02:36:50;;;;;;;;;5.75;5.00;;;;;15.08;54.00;99940.81;5054756;28;45443;-52
2022/04/12 02:39:15;;;;;;;;;8.00;4.00;;;;;15.29;54.24;99986.94;5054867;28;45464;-54
2022/04/12 02:41:41;;;;;;;;;6.00;4.75;;;;;15.24;54.28;99983.28;5055031;28;45523;-55
2022/04/12 02:44:06;;;;;;;;;4.75;4.00;;;;;15.15;54.02;99960.78;5053773;28;45505;-52
2022/04/12 02:46:32;;;;;;;;;6.00;5.25;;;;;15.06;53.85;99946.63;5054784;28;45536;-55
2022/04/12 02:48:57;;;;;;;;;7.00;4.50;;;;;15.26;54.33;99989.38;5054736;28;45561;-53
2022/04/12 02:51:23;;;;;;;;;4.00;4.00;;;;;15.22;53.80;99986.31;5037164;28;45287;-54
2022/04/12 02:53:48;;;;;;;;;4.00;4.00;;;;;15.14;54.21;99978.47;5054968;28;45910;-52
2022/04/12 02:56:14;;;;;;;;;3.50;3.25;;;;;15.18;54.19;99974.94;5040300;28;45868;-54
2022/04/12 02:58:40;;;;;;;;;5.25;4.50;;;;;15.19;54.30;99989.59;5058501;28;45294;-55
2022/04/12 03:01:05;;;;;;;;;4.50;4.25;;;;;15.17;53.89;99978.78;5058479;28;45356;-49
2022/04/12 03:03:30;;;;;;;;;4.50;3.75;;;;;15.18;54.12;99980.47;5040304;28;46002;-55
2022/04/12 03:05:56;;;;;;;;;6.00;5.00;;;;;15.12;53.36;99958.56;5056979;28;45338;-53
2022/04/12 03:08:22;;;;;;;;;2.50;2.50;;;;;15.17;53.57;99964.16;5058541;28;45352;-52
2022/04/12 03:10:48;;;;;;;;;4.20;4.20;;;;;15.11;53.72;99948.59;5057351;28;45688;-56
2022/04/12 03:13:13;;;;;;;;;6.50;5.00;;;;;14.87;53.72;99904.72;5057214;28;46310;-51
2022/04/12 03:15:39;;;;;;;;;2.50;2.50;;;;;15.05;53.75;99933.88;5040097;28;45458;-55
2022/04/12 03:18:04;;;;;;;;;3.50;3.50;;;;;14.45;53.68;99848.19;5058469;28;45419;-54
2022/04/12 03:20:30;;;;;;;;;3.75;3.75;;;;;15.08;53.67;99943.59;5058029;28;45520;-53
2022/04/12 03:22:56;;;;;;;;;5.00;4.00;;;;;15.09;53.41;99945.28;5058098;28;45416;-52
2022/04/12 03:25:21;;;;;;;;;1.75;1.75;;;;;14.94;53.33;99929.38;5039965;28;45400;-55
2022/04/12 03:27:47;;;;;;;;;3.75;3.75;;;;;15.04;53.22;99941.38;5058254;28;45747;-55
2022/04/12 03:30:12;;;;;;;;;3.75;3.50;;;;;15.04;53.38;99937.75;5058516;28;45965;-51
2022/04/12 03:32:38;;;;;;;;;5.00;5.00;;;;;15.08;53.57;99949.13;5039839;28;47341;-52
2022/04/12 03:35:04;;;;;;;;;4.75;4.00;;;;;15.06;53.89;99941.09;5039969;28;45454;-56
2022/04/12 03:37:30;;;;;;;;;4.20;3.00;;;;;14.96;53.43;99933.56;5057808;28;45813;-55
2022/04/12 03:39:55;;;;;;;;;6.25;5.25;;;;;14.85;53.96;99923.50;5058283;28;45225;-55
2022/04/12 03:42:23;;;;;;;;;5.00;4.25;;;;;14.95;53.99;99953.16;5057521;28;46149;-55
2022/04/12 03:44:49;;;;;;;;;3.20;3.20;;;;;15.04;53.51;99969.00;5057781;28;45425;-54
2022/04/12 03:47:15;;;;;;;;;4.60;3.80;;;;;14.90;53.87;99957.50;5058022;28;45368;-56
2022/04/12 03:49:40;;;;;;;;;3.00;3.00;;;;;14.81;52.90;99955.47;5039612;28;45512;-53
2022/04/12 03:52:06;;;;;;;;;2.75;2.75;;;;;14.98;53.33;99971.97;5057622;28;45867;-50
2022/04/12 03:54:31;;;;;;;;;3.00;2.00;;;;;15.00;52.97;99973.38;5073655;28;45586;-55
2022/04/12 03:56:57;;;;;;;;;5.00;5.00;;;;;15.03;52.62;99974.78;5057803;28;45445;-52
2022/04/12 03:59:23;;;;;;;;;5.25;4.00;;;;;15.01;52.46;99971.44;5057450;28;45354;-56
2022/04/12 04:01:49;;;;;;;;;5.00;4.00;;;;;14.99;52.68;99965.34;5056979;28;46982;-53
2022/04/12 04:04:16;;;;;;;;;4.50;4.50;;;;;14.84;52.49;99941.16;5056121;28;45500;-54
2022/04/12 04:06:41;;;;;;;;;5.00;2.60;;;;;14.86;52.46;99959.16;5053893;28;45767;-56
2022/04/12 04:09:07;;;;;;;;;3.00;2.50;;;;;14.89;52.22;99955.84;5073100;28;45464;-54
2022/04/12 04:11:33;;;;;;;;;3.75;3.75;;;;;14.88;52.09;99961.63;5057083;28;46051;-53
2022/04/12 04:14:00;;;;;;;;;2.20;2.20;;;;;14.60;52.15;99933.97;5038657;28;45603;-57
2022/04/12 04:16:26;;;;;;;;;4.00;4.00;;;;;14.82;52.00;99973.72;5057149;28;45761;-53
2022/04/12 04:18:51;;;;;;;;;3.00;3.00;;;;;14.82;51.90;99965.44;5073408;28;45997;-52
2022/04/12 04:21:17;;;;;;;;;4.00;4.00;;;;;14.79;51.28;99964.03;5056446;28;46040;-55
2022/04/12 04:23:42;;;;;;;;;4.25;3.50;;;;;14.77;51.23;99967.06;5057123;28;45501;-52
2022/04/12 04:26:08;;;;;;;;;3.00;3.00;;;;;14.69;51.05;99978.53;5056804;28;45332;-53
2022/04/12 04:28:34;;;;;;;;;4.00;2.50;;;;;14.31;51.29;99919.56;5057087;28;45224;-50
2022/04/12 04:30:59;;;;;;;;;2.00;2.00;;;;;14.35;51.35;99946.38;5089017;27;47295;-53
2022/04/12 04:33:25;;;;;;;;;3.00;3.00;;;;;14.56;51.93;99979.75;5038550;28;45845;-55
2022/04/12 04:35:51;;;;;;;;;3.75;2.25;;;;;14.55;51.34;99980.00;5056838;28;45348;-53
2022/04/12 04:38:17;;;;;;;;;2.40;2.00;;;;;14.48;52.03;99982.97;5056750;28;45609;-51
2022/04/12 04:40:42;;;;;;;;;3.00;3.00;;;;;14.39;52.05;99992.78;5056600;28;45369;-51
2022/04/12 04:43:08;;;;;;;;;3.00;3.00;;;;;14.37;51.47;99984.78;5074833;27;45396;-50
2022/04/12 04:45:37;;;;;;;;;3.00;3.00;;;;;14.35;51.52;99986.94;5056541;28;45542;-58
2022/04/12 04:48:03;;;;;;;;;2.00;2.00;;;;;14.22;51.32;99963.31;5056950;28;45917;-52
2022/04/12 04:50:31;;;;;;;;;2.20;2.20;;;;;14.36;52.01;99992.22;5056207;28;46306;-54
2022/04/12 04:53:02;;;;;;;;;3.20;3.20;;;;;14.11;51.97;99956.81;5038498;28;45402;-54
2022/04/12 04:55:27;;;;;;;;;5.40;3.40;;;;;14.33;51.67;100006.53;5054442;28;45500;-53
2022/04/12 04:57:54;;;;;;;;;5.00;3.50;;;;;14.31;52.41;100002.34;5038674;28;45419;-57
2022/04/12 05:00:21;;;;;;;;;3.60;2.40;;;;;14.29;52.43;99982.47;5055746;28;45649;-55
2022/04/12 05:02:48;;;;;;;;;4.80;3.00;;;;;14.18;51.68;99971.28;5054443;28;45504;-52
2022/04/12 05:05:14;;;;;;;;;4.00;2.20;;;;;14.30;52.27;100001.50;5056593;28;45474;-57
2022/04/12 05:07:43;;;;;;;;;3.00;3.00;;;;;14.13;52.17;100011.78;5052645;28;45579;-55
2022/04/12 05:10:09;;;;;;;;;2.20;2.20;;;;;14.06;52.74;99984.34;5050337;28;46279;-50
2022/04/12 05:12:34;;;;;;;;;3.40;3.00;;;;;14.16;52.10;100005.72;5054931;28;45260;-54
2022/04/12 05:15:00;;;;;;;;;3.50;3.50;;;;;14.14;52.42;100008.72;5055316;28;45284;-56
2022/04/12 05:17:26;;;;;;;;;3.00;3.00;;;;;14.09;52.52;100020.53;5055541;28;45535;-56
2022/04/12 05:19:52;;;;;;;;;3.60;3.60;;;;;14.06;52.75;100025.72;5071645;28;46281;-57
2022/04/12 05:22:18;;;;;;;;;5.75;4.75;;;;;14.06;52.89;100028.50;5055685;28;45332;-52
2022/04/12 05:24:44;;;;;;;;;4.00;2.25;;;;;14.02;52.79;100024.56;5071836;28;45639;-54
2022/04/12 05:27:10;;;;;;;;;6.00;5.00;;;;;14.03;53.05;100013.28;5056086;28;45740;-58
2022/04/12 05:29:36;;;;;;;;;5.50;4.25;;;;;14.02;52.73;100016.28;5056001;28;45481;-56
2022/04/12 05:32:02;;;;;;;;;6.00;4.00;;;;;14.01;53.41;100020.13;5055754;28;45405;-55
2022/04/12 05:34:27;;;;;;;;;7.75;5.00;;;;;14.07;52.87;100033.75;5071209;28;45808;-54
2022/04/12 05:36:53;;;;;;;;;3.00;3.00;;;;;14.08;53.00;100031.81;5038006;28;45463;-50
2022/04/12 05:39:19;;;;;;;;;6.00;4.75;;;;;14.06;53.17;100006.41;5055236;28;46065;-55
2022/04/12 05:41:44;;;;;;;;;4.25;4.25;;;;;14.14;53.52;100025.28;5055630;28;45346;-53
2022/04/12 05:44:10;;;;;;;;;5.75;3.75;;;;;14.16;52.85;100025.03;5055788;28;45260;-54
2022/04/12 05:46:35;;;;;;;;;4.75;4.75;;;;;14.17;52.74;100027.56;5056142;28;45550;-53
2022/04/12 05:49:01;;;;;;;;;4.50;4.50;;;;;14.17;52.75;100046.03;5055315;28;46680;-54
2022/04/12 05:51:26;;;;;;;;;6.50;6.00;;;;;14.22;52.78;100041.44;5055350;28;45323;-56
2022/04/12 05:53:52;;;;;;;;;6.00;5.00;;;;;14.01;52.32;99998.91;5054497;28;45468;-52
2022/04/12 05:56:17;;;;;;;;;5.75;4.75;;;;;14.24;52.23;100043.91;5037724;28;45326;-54
2022/04/12 05:58:43;;;;;;;;;3.75;3.75;;;;;14.24;51.98;100052.19;5054956;28;46287;-57
2022/04/12 06:01:08;;;;;;;;;5.25;4.75;;;;;14.15;52.08;100040.75;5053785;28;45622;-55
2022/04/12 06:03:34;;;;;;;;;4.50;4.50;;;;;14.21;51.97;100048.03;5055552;28;45449;-56
2022/04/12 06:05:59;;;;;;;;;4.00;4.00;;;;;14.15;52.08;100038.00;5055535;28;45574;-55
2022/04/12 06:08:25;;;;;;;;;4.00;3.00;;;;;14.03;51.64;100017.97;5054308;28;46105;-52
2022/04/12 06:10:51;;;;;;;;;5.00;4.75;;;;;14.29;51.59;100048.72;5070665;28;45532;-56
2022/04/12 06:13:16;;;;;;;;;6.25;4.25;;;;;14.32;51.83;100059.22;5055334;28;45446;-54
2022/04/12 06:15:41;;;;;;;;;6.75;5.75;;;;;14.29;51.67;100045.94;5037534;28;45664;-55
2022/04/12 06:18:07;;;;;;;;;4.75;3.00;;;;;14.32;50.94;100054.56;5055088;28;45454;-50
2022/04/12 06:20:33;;;;;;;;;4.50;4.50;;;;;14.29;51.25;100048.72;5055134;28;45453;-52
2022/04/12 06:22:58;;;;;;;;;4.00;4.00;;;;;14.27;51.20;100050.88;5054997;28;45421;-49
2022/04/12 06:25:24;;;;;;;;;5.00;3.50;;;;;14.30;51.64;100059.47;5053903;28;45350;-53
2022/04/12 06:27:50;;;;;;;;;4.00;4.00;;;;;14.34;51.68;100066.16;5035389;28;47551;-57
2022/04/12 06:30:26;;;;;;;;;5.60;3.80;;;;;14.28;51.18;100052.53;5054747;28;45319;-52
2022/04/12 06:32:52;;;;;;;;;6.20;4.00;;;;;14.32;51.21;100067.50;5070383;28;45685;-53
2022/04/12 06:35:18;;;;;;;;;4.25;4.25;;;;;14.37;50.82;100079.44;5055075;28;45421;-52
2022/04/12 06:37:45;;;;;;;;;3.50;3.50;;;;;14.17;50.97;100041.34;5036650;28;46212;-53
2022/04/12 06:40:12;;;;;;;;;4.60;4.60;;;;;14.42;50.92;100087.00;5054756;28;45465;-54
2022/04/12 06:42:38;;;;;;;;;4.00;4.00;;;;;14.48;50.96;100088.72;5033201;28;45349;-54
2022/04/12 06:45:04;;;;;;;;;5.50;5.00;;;;;14.46;50.93;100096.41;5035151;28;45691;-54
2022/04/12 06:47:29;;;;;;;;;5.50;3.75;;;;;14.45;50.80;100097.50;5016406;28;47212;-56
2022/04/12 06:49:55;;;;;;;;;3.00;3.00;;;;;14.41;50.55;100088.06;5016737;28;45323;-52
2022/04/12 06:52:21;;;;;;;;;3.00;3.00;;;;;14.47;50.67;100094.50;5034657;28;45411;-54
2022/04/12 06:54:47;;;;;;;;;3.60;3.60;;;;;14.55;50.27;100107.03;5017066;28;45552;-56
2022/04/12 06:57:13;;;;;;;;;4.75;4.00;;;;;14.47;49.91;100106.38;5034461;28;46497;-53
2022/04/12 06:59:38;;;;;;;;;5.50;3.00;;;;;14.39;50.44;100105.97;5012512;28;45363;-51
2022/04/12 07:02:04;;;;;;;;;4.50;3.00;;;;;14.52;49.98;100129.63;5014597;28;45539;-58
2022/04/12 07:04:29;;;;;;;;;5.75;4.25;;;;;14.46;49.47;100134.25;5014749;28;45622;-55
2022/04/12 07:06:56;;;;;;;;;12.00;7.00;;;;;14.49;50.19;100125.44;5014416;28;46039;-53
2022/04/12 07:09:27;;;;;;;;;6.80;4.00;;;;;14.50;50.41;100125.22;5012999;28;45427;-54
2022/04/12 07:11:59;;;;;;;;;5.00;4.00;;;;;14.37;49.75;100109.00;5014481;28;45418;-54
2022/04/12 07:14:25;;;;;;;;;5.00;4.20;;;;;14.53;49.72;100148.72;4997739;28;45643;-56
2022/04/12 07:16:50;;;;;;;;;2.75;2.75;;;;;14.59;49.71;100156.00;5014437;28;46600;-54
2022/04/12 07:19:18;;;;;;;;;4.00;4.00;;;;;14.58;49.74;100134.16;5013222;28;45415;-55
2022/04/12 07:21:44;;;;;;;;;5.80;5.00;;;;;14.70;50.07;100154.22;5013102;28;45567;-54
2022/04/12 07:24:09;;;;;;;;;3.75;3.75;;;;;14.41;49.28;100112.09;5014379;28;45438;-50
2022/04/12 07:26:36;;;;;;;;;3.75;2.75;;;;;13.88;49.06;100016.63;4988365;28;47297;-54
2022/04/12 07:29:02;;;;;;;;;4.00;3.00;;;;;14.71;49.68;100149.50;5026188;28;45508;-51
2022/04/12 07:31:28;;;;;;;;;4.20;2.80;;;;;14.77;49.96;100154.91;5029254;28;45472;-51
2022/04/12 07:33:53;;;;;;;;;3.50;3.50;;;;;14.85;49.73;100164.69;5028917;28;45563;-51
2022/04/12 07:36:19;;;;;;;;;3.50;3.50;;;;;14.83;48.72;100152.22;5029412;28;45917;-51
2022/04/12 07:38:45;;;;;;;;;3.75;3.75;;;;;14.89;48.95;100160.28;5026941;28;45903;-53
2022/04/12 07:41:10;;;;;;;;;2.25;2.25;;;;;14.90;49.50;100148.16;5042709;28;45807;-57
2022/04/12 07:43:36;;;;;;;;;4.50;4.00;;;;;14.97;48.61;100152.66;5042664;28;45561;-52
2022/04/12 07:46:02;;;;;;;;;7.00;5.50;;;;;14.79;48.40;100120.66;5010306;28;47008;-53
2022/04/12 07:48:27;;;;;;;;;3.00;3.00;;;;;14.98;48.92;100146.03;5020047;28;45335;-51
2022/04/12 07:50:54;;;;;;;;;3.00;3.00;;;;;14.94;48.49;100136.59;5032150;28;45478;-54
2022/04/12 07:53:19;;;;;;;;;3.00;3.00;;;;;15.10;48.65;100151.47;5032259;28;45611;-56
2022/04/12 07:55:45;;;;;;;;;5.50;3.25;;;;;15.14;48.45;100147.06;5032799;28;45464;-53
2022/04/12 07:58:10;;;;;;;;;4.00;4.00;;;;;15.17;47.74;100138.28;5065317;28;45638;-56
2022/04/12 08:00:36;;;;;;;;;5.50;3.25;;;;;15.08;47.69;100112.16;5016518;28;45524;-57
2022/04/12 08:03:01;;;;;;;;;3.00;3.00;;;;;15.33;48.05;100142.06;5031648;28;45362;-59
2022/04/12 08:05:27;;;;;;;;;5.25;2.75;;;;;15.37;47.36;100147.91;5031883;28;46689;-54
2022/04/12 08:07:52;;;;;;;;;3.00;3.00;;;;;15.37;47.50;100134.91;5032956;28;45449;-51
2022/04/12 08:10:18;;;;;;;;;3.75;3.00;;;;;15.21;47.36;100100.72;5031603;28;45454;-51
2022/04/12 08:12:44;;;;;;;;;5.50;4.00;;;;;15.46;47.25;100138.03;5029190;28;45600;-50
2022/04/12 08:15:10;;;;;;;;;3.20;3.00;;;;;15.07;47.57;100060.75;5015466;28;46199;-54
2022/04/12 08:17:36;;;;;;;;;3.00;2.00;;;;;15.55;46.81;100128.22;5045968;28;45900;-52
2022/04/12 08:20:01;;;;;;;;;3.25;3.25;;;;;15.62;47.16;100141.00;5030627;28;45588;-53
2022/04/12 08:22:27;;;;;;;;;3.50;3.50;;;;;15.41;47.42;100082.69;5031705;28;45586;-55
2022/04/12 08:24:52;;;;;;;;;5.25;3.75;;;;;15.71;46.86;100125.59;5030271;28;46423;-52
2022/04/12 08:27:18;;;;;;;;;4.00;3.00;;;;;15.79;46.83;100138.94;5019684;28;45908;-53
2022/04/12 08:29:45;;;;;;;;;3.00;3.00;;;;;15.86;46.90;100141.50;5027804;28;45883;-52
2022/04/12 08:32:10;;;;;;;;;8.60;5.40;;;;;15.88;47.04;100139.31;5030892;28;45483;-51
2022/04/12 08:34:35;;;;;;;;;3.00;3.00;;;;;15.91;46.44;100133.22;5031143;28;46114;-52
2022/04/12 08:37:02;;;;;;;;;4.75;3.50;;;;;16.01;46.59;100137.25;5029026;28;45725;-52
2022/04/12 08:39:27;;;;;;;;;3.80;3.80;;;;;16.08;46.13;100143.38;5029503;28;45784;-50
2022/04/12 08:41:57;;;;;;;;;3.75;3.75;;;;;16.13;46.10;100130.41;5009708;28;45658;-51
2022/04/12 08:44:23;;;;;;;;;2.00;2.00;;;;;16.22;45.96;100129.94;5011302;28;45735;-51
2022/04/12 08:46:48;;;;;;;;;5.25;2.75;;;;;16.26;46.18;100129.16;5026939;28;45505;-50
2022/04/12 08:49:14;;;;;;;;;2.75;2.50;;;;;16.38;45.66;100137.25;5020042;28;45413;-49
2022/04/12 08:51:39;;;;;;;;;2.75;2.75;;;;;16.48;45.94;100138.41;5031832;28;45544;-50
2022/04/12 08:54:05;;;;;;;;;3.75;3.75;;;;;16.55;45.51;100135.44;5030431;28;46479;-50
2022/04/12 08:56:31;;;;;;;;;4.00;3.00;;;;;16.61;44.69;100131.59;5047709;28;45504;-53
2022/04/12 08:58:57;;;;;;;;;5.00;1.75;;;;;16.69;45.15;100124.72;5066038;28;45439;-53
2022/04/12 09:01:22;;;;;;;;;3.00;2.00;;;;;16.79;45.06;100124.75;5052427;28;45428;-54
2022/04/12 09:03:48;;;;;;;;;3.50;3.50;;;;;16.87;44.80;100143.63;5052041;28;45516;-55
2022/04/12 09:06:13;;;;;;;;;9.75;8.00;;;;;16.90;44.32;100126.50;5051186;28;45803;-51
2022/04/12 09:08:39;;;;;;;;;11.25;9.25;;;;;17.06;44.30;100126.56;5052410;28;45467;-57
2022/04/12 09:11:07;;;;;;;;;2.20;2.20;;;;;17.09;43.72;100128.81;5052604;28;45432;-55
2022/04/12 09:13:33;;;;;;;;;2.00;2.00;;;;;16.97;43.69;100083.84;5033998;28;46861;-51
2022/04/12 09:15:58;;;;;;;;;1.50;1.00;;;;;17.30;43.23;100126.13;5052114;28;45352;-56
2022/04/12 09:18:31;;;;;;;;;2.50;2.50;;;;;17.14;43.30;100083.66;5050783;28;45395;-50
2022/04/12 09:21:08;;;;;;;;;2.00;2.00;;;;;17.41;43.16;100125.06;5050690;28;45443;-53
2022/04/12 09:23:34;;;;;;;;;1.80;1.80;;;;;17.51;43.22;100123.41;5050908;28;46006;-52
2022/04/12 09:25:59;;;;;;;;;1.75;1.75;;;;;17.59;43.01;100120.09;5037758;28;46009;-52
2022/04/12 09:28:25;;;;;;;;;3.00;3.00;;;;;17.65;42.89;100126.50;5050409;28;45783;-55
2022/04/12 09:30:53;;;;;;;;;2.00;2.00;;;;;17.71;42.98;100117.03;5051077;28;45562;-55
2022/04/12 09:33:34;;;;;;;;;3.60;3.40;;;;;17.75;42.82;100113.47;5051709;28;47026;-50
2022/04/12 09:35:59;;;;;;;;;5.00;3.80;;;;;17.65;42.84;100087.66;5052048;28;45953;-57
2022/04/12 09:38:36;;;;;;;;;2.25;2.00;;;;;17.85;42.83;100106.25;5033703;28;45520;-51
2022/04/12 09:41:19;;;;;;;;;3.00;1.40;;;;;17.93;42.19;100118.75;5032516;28;45732;-55
2022/04/12 09:43:56;;;;;;;;;2.00;2.00;;;;;17.96;42.75;100118.19;5033390;28;48639;-54
2022/04/12 09:46:22;;;;;;;;;2.00;2.00;;;;;18.01;42.41;100113.50;5051792;28;45500;-56
2022/04/12 09:48:48;;;;;;;;;3.00;2.40;;;;;18.09;42.61;100097.41;5051638;28;45547;-53
2022/04/12 09:51:14;;;;;;;;;2.00;2.00;;;;;18.09;41.77;100092.66;5051982;28;45872;-51
2022/04/12 09:53:41;;;;;;;;;3.40;1.20;;;;;18.18;42.22;100100.47;5050275;28;46669;-54
2022/04/12 09:56:16;;;;;;;;;2.00;2.00;;;;;18.20;41.84;100099.06;5066833;28;45468;-49
2022/04/12 09:58:43;;;;;;;;;2.00;2.00;;;;;18.12;41.17;100077.41;5060743;28;45446;-52
2022/04/12 10:01:10;;;;;;;;;5.40;2.80;;;;;18.33;41.81;100110.72;5049332;28;45845;-53
2022/04/12 10:03:35;;;;;;;;;2.00;2.00;;;;;18.37;42.10;100112.63;5050950;28;46263;-52
2022/04/12 10:06:01;;;;;;;;;1.50;1.50;;;;;18.46;41.88;100114.88;5012028;28;45900;-57
2022/04/12 10:08:27;;;;;;;;;1.00;1.00;;;;;18.52;41.89;100110.97;5012951;28;45532;-51
2022/04/12 10:10:52;;;;;;;;;3.25;3.25;;;;;18.60;41.98;100115.09;5013312;28;45434;-56
2022/04/12 10:13:18;;;;;;;;;4.00;4.00;;;;;18.63;41.48;100100.66;5029310;28;45797;-53
2022/04/12 10:15:43;;;;;;;;;4.00;2.75;;;;;18.67;41.86;100082.28;5013470;28;45821;-51
2022/04/12 10:18:11;;;;;;;;;4.75;2.00;;;;;18.74;41.45;100082.00;5032155;28;45577;-55
2022/04/12 10:20:37;;;;;;;;;2.00;2.00;;;;;18.78;41.14;100078.38;5051255;28;45457;-56
2022/04/12 10:23:02;;;;;;;;;3.50;3.00;;;;;18.54;41.27;100022.59;5051318;28;46083;-55
2022/04/12 10:25:28;;;;;;;;;2.75;2.75;;;;;18.91;41.75;100071.38;5051676;27;45873;-56
2022/04/12 10:27:56;;;;;;;;;4.75;4.00;;;;;19.03;41.61;100068.28;5033063;28;45506;-56
2022/04/12 10:30:26;;;;;;;;;3.80;3.20;;;;;19.07;41.23;100063.00;5031986;28;45530;-54
2022/04/12 10:33:15;;;;;;;;;3.80;3.80;;;;;19.15;41.77;100061.56;5033284;28;45969;-53
2022/04/12 10:35:54;;;;;;;;;2.40;2.00;;;;;19.31;40.89;100054.78;5051148;28;45761;-55
2022/04/12 10:38:24;;;;;;;;;6.80;5.40;;;;;19.37;40.78;100053.63;5051260;28;45445;-51
2022/04/12 10:40:54;;;;;;;;;4.40;4.00;;;;;19.35;40.70;100067.00;5050756;28;45421;-55
2022/04/12 10:43:36;;;;;;;;;2.60;2.60;;;;;19.25;40.63;100057.91;5032819;28;46273;-49
2022/04/12 10:46:02;;;;;;;;;3.80;3.80;;;;;19.37;41.25;100084.25;5037092;28;45608;-55
2022/04/12 10:48:29;;;;;;;;;3.20;3.20;;;;;19.46;40.54;100095.59;5054917;28;45916;-51
2022/04/12 10:50:56;;;;;;;;;1.00;1.00;;;;;19.53;41.02;100081.34;5043742;28;45401;-51
2022/04/12 10:53:39;;;;;;;;;3.00;3.00;;;;;19.60;40.28;100086.59;5013914;28;45943;-51
2022/04/12 10:56:12;;;;;;;;;3.00;2.40;;;;;19.49;40.46;100047.69;5033469;28;45479;-56
2022/04/12 10:58:37;;;;;;;;;2.00;2.00;;;;;19.84;40.40;100081.13;5039657;27;45833;-53
2022/04/12 11:01:04;;;;;;;;;1.00;1.00;;;;;19.96;40.33;100082.75;5054208;28;45734;-50
2022/04/12 11:03:42;;;;;;;;;1.80;1.80;;;;;19.88;39.89;100070.25;5054017;28;45685;-53
2022/04/12 11:06:11;;;;;;;;;1.00;1.00;;;;;19.92;39.96;100066.56;5030563;28;45961;-53
2022/04/12 11:08:37;;;;;;;;;4.60;3.60;;;;;20.25;39.80;100102.28;5035124;28;45506;-51
2022/04/12 11:11:04;;;;;;;;;3.00;3.00;;;;;20.33;39.54;100116.69;5053586;28;45841;-55
2022/04/12 11:13:31;;;;;;;;;3.60;2.40;;;;;20.31;39.38;100101.09;5054386;28;45800;-54
2022/04/12 11:16:00;;;;;;;;;4.80;2.20;;;;;20.34;39.06;100108.03;5057432;28;45405;-55
2022/04/12 11:18:52;;;;;;;;;5.60;3.60;;;;;20.29;39.72;100114.47;5057914;28;45450;-56
2022/04/12 11:21:22;;;;;;;;;4.00;2.80;;;;;20.34;39.81;100105.25;5050805;28;45749;-55
2022/04/12 11:23:52;;;;;;;;;5.80;4.00;;;;;20.25;39.33;100102.28;5058202;28;46447;-59
2022/04/12 11:26:50;;;;;;;;;2.80;2.40;;;;;20.35;39.41;100129.19;5073875;28;45557;-55
2022/04/12 11:29:17;;;;;;;;;2.80;2.80;;;;;20.23;39.64;100124.00;5056707;28;45426;-55